NV50 weather

Goldfield Airport
Goldfield, Nevada, United States

Public forecast

Using degrees Fahrenheit for public forecast. Weather courtesy of forecast.io.

METAR (pilot weather report)

Closest report is Tonopah Airport, 21.5 nm (39.7 km) NNE. Retrieved 2019/09/16 02:56 UTC (53 minutes ago):

KTPH 160256Z AUTO 15008KT 10SM CLR 22/M06 A2997 RMK AO2 SLP087 T02171056 55002 $

TAF (pilot weather forecast)

Forecast is more than 12 hours old.

Closest forecast is Tonopah Airport, 21.5 nm (39.7 km) NNE. Retrieved 2019/09/15 00:22 UTC (1 day ago):

TAF KTPH 152320Z 1600/1624 19014G22KT P6SM FEW250 FM160300 18006KT P6SM SCT250 FM161800 20025G35KT P6SM SCT250